DLH119 EDDM-EDDF
Flight info
| Callsign | DLH119 |
|---|---|
| Flight time | 0h 33m |
| Altitude | 24000 |
| Route | GIVMI1N/26R GIVMI Y101 ERNAS T161 DEBHI DEBHI1B |
| Aircraft | A320/M-SDE3FGHIRWY/LB1 |
Departure
| Time | 2026-05-05 18:06 |
|---|---|
| Airport | Munich Airport (EDDM) |
Arrival
| Time | 2026-05-05 18:39 |
|---|---|
| Airport | Frankfurt Main Airport (EDDF) |
| Time | Latitude | Longitude | Altitude | Speed | Heading |
|---|---|---|---|---|---|
| 2026-05-05 17:40 | 48.35533 | 11.79739 | 1472 ft | 0 kts | 83° |
| 2026-05-05 17:52 | 48.35532 | 11.79722 | 1468 ft | 2 kts | 83° |
| 2026-05-05 17:52 | 48.35530 | 11.79697 | 1463 ft | 2 kts | 83° |
| 2026-05-05 17:52 | 48.35528 | 11.79672 | 1473 ft | 2 kts | 83° |
| 2026-05-05 17:53 | 48.35526 | 11.79648 | 1464 ft | 2 kts | 84° |
| 2026-05-05 17:53 | 48.35525 | 11.79623 | 1468 ft | 2 kts | 83° |
| 2026-05-05 17:53 | 48.35518 | 11.79602 | 1464 ft | 2 kts | 45° |
| 2026-05-05 17:53 | 48.35505 | 11.79587 | 1465 ft | 2 kts | 21° |
| 2026-05-05 17:54 | 48.35492 | 11.79582 | 1468 ft | 1 kts | 357° |
| 2026-05-05 17:54 | 48.35491 | 11.79582 | 1468 ft | 0 kts | 353° |
| 2026-05-05 17:58 | 48.35494 | 11.79582 | 1467 ft | 4 kts | 354° |
| 2026-05-05 17:58 | 48.35554 | 11.79572 | 1470 ft | 10 kts | 353° |
| 2026-05-05 17:59 | 48.35635 | 11.79559 | 1466 ft | 13 kts | 354° |
| 2026-05-05 17:59 | 48.35734 | 11.79543 | 1470 ft | 16 kts | 354° |
| 2026-05-05 17:59 | 48.35852 | 11.79520 | 1463 ft | 18 kts | 353° |
| 2026-05-05 17:59 | 48.35977 | 11.79500 | 1464 ft | 11 kts | 354° |
| 2026-05-05 18:00 | 48.35980 | 11.79500 | 1465 ft | 0 kts | 354° |
| 2026-05-05 18:01 | 48.36023 | 11.79493 | 1461 ft | 13 kts | 354° |
| 2026-05-05 18:01 | 48.36119 | 11.79477 | 1460 ft | 15 kts | 353° |
| 2026-05-05 18:01 | 48.36216 | 11.79520 | 1466 ft | 16 kts | 66° |
| 2026-05-05 18:02 | 48.36231 | 11.79691 | 1467 ft | 16 kts | 84° |
| 2026-05-05 18:02 | 48.36245 | 11.79879 | 1466 ft | 22 kts | 83° |
| 2026-05-05 18:02 | 48.36264 | 11.80117 | 1465 ft | 24 kts | 83° |
| 2026-05-05 18:02 | 48.36285 | 11.80377 | 1464 ft | 26 kts | 83° |
| 2026-05-05 18:03 | 48.36305 | 11.80656 | 1464 ft | 28 kts | 83° |
| 2026-05-05 18:03 | 48.36328 | 11.80954 | 1463 ft | 30 kts | 84° |
| 2026-05-05 18:03 | 48.36351 | 11.81258 | 1462 ft | 28 kts | 83° |
| 2026-05-05 18:03 | 48.36374 | 11.81558 | 1460 ft | 30 kts | 83° |
| 2026-05-05 18:04 | 48.36395 | 11.81830 | 1460 ft | 17 kts | 83° |
| 2026-05-05 18:04 | 48.36419 | 11.81987 | 1458 ft | 15 kts | 36° |
| 2026-05-05 18:04 | 48.36529 | 11.81990 | 1459 ft | 17 kts | 353° |
| 2026-05-05 18:04 | 48.36651 | 11.81969 | 1459 ft | 13 kts | 353° |
| 2026-05-05 18:05 | 48.36673 | 11.81899 | 1460 ft | 8 kts | 275° |
| 2026-05-05 18:05 | 48.36671 | 11.81872 | 1459 ft | 0 kts | 262° |
| 2026-05-05 18:05 | 48.36658 | 11.81698 | 1460 ft | 49 kts | 263° |
| 2026-05-05 18:05 | 48.36591 | 11.80820 | 1462 ft | 116 kts | 263° |
| 2026-05-05 18:06 | 48.36485 | 11.79379 | 1628 ft | 152 kts | 265° |
| 2026-05-05 18:06 | 48.36406 | 11.78306 | 2068 ft | 155 kts | 264° |
| 2026-05-05 18:06 | 48.36248 | 11.76141 | 2968 ft | 164 kts | 266° |
| 2026-05-05 18:06 | 48.36119 | 11.74326 | 3332 ft | 186 kts | 266° |
| 2026-05-05 18:07 | 48.35964 | 11.72278 | 3643 ft | 208 kts | 265° |
| 2026-05-05 18:07 | 48.35791 | 11.70041 | 4163 ft | 222 kts | 265° |
| 2026-05-05 18:07 | 48.35887 | 11.67728 | 4973 ft | 226 kts | 287° |
| 2026-05-05 18:07 | 48.36635 | 11.65569 | 5654 ft | 239 kts | 299° |
| 2026-05-05 18:08 | 48.37531 | 11.63371 | 6252 ft | 257 kts | 300° |
| 2026-05-05 18:08 | 48.38505 | 11.61012 | 6698 ft | 271 kts | 300° |
| 2026-05-05 18:08 | 48.39499 | 11.58609 | 6787 ft | 271 kts | 299° |
| 2026-05-05 18:08 | 48.40481 | 11.56225 | 6815 ft | 271 kts | 299° |
| 2026-05-05 18:09 | 48.41471 | 11.53812 | 6816 ft | 271 kts | 299° |
| 2026-05-05 18:09 | 48.42457 | 11.51396 | 6815 ft | 271 kts | 299° |
| 2026-05-05 18:09 | 48.43439 | 11.48981 | 6816 ft | 270 kts | 299° |
| 2026-05-05 18:09 | 48.44468 | 11.46577 | 7176 ft | 278 kts | 306° |
| 2026-05-05 18:10 | 48.45834 | 11.44513 | 8220 ft | 281 kts | 319° |
| 2026-05-05 18:10 | 48.47524 | 11.42971 | 9175 ft | 289 kts | 333° |
| 2026-05-05 18:10 | 48.49480 | 11.42106 | 10031 ft | 300 kts | 346° |
| 2026-05-05 18:10 | 48.51612 | 11.41523 | 10402 ft | 323 kts | 346° |
| 2026-05-05 18:11 | 48.53902 | 11.40900 | 10842 ft | 341 kts | 347° |
| 2026-05-05 18:11 | 48.56266 | 11.40265 | 11576 ft | 348 kts | 347° |
| 2026-05-05 18:11 | 48.58670 | 11.39619 | 12381 ft | 353 kts | 347° |
| 2026-05-05 18:11 | 48.61062 | 11.38971 | 13178 ft | 357 kts | 347° |
| 2026-05-05 18:12 | 48.63519 | 11.38300 | 13923 ft | 361 kts | 347° |
| 2026-05-05 18:12 | 48.66004 | 11.37612 | 14609 ft | 365 kts | 347° |
| 2026-05-05 18:12 | 48.68509 | 11.36842 | 15277 ft | 368 kts | 342° |
| 2026-05-05 18:12 | 48.70905 | 11.35481 | 15929 ft | 370 kts | 331° |
| 2026-05-05 18:13 | 48.73114 | 11.33472 | 16601 ft | 372 kts | 323° |
| 2026-05-05 18:13 | 48.75271 | 11.31274 | 17357 ft | 372 kts | 323° |
| 2026-05-05 18:13 | 48.77401 | 11.29112 | 18340 ft | 367 kts | 323° |
| 2026-05-05 18:13 | 48.79527 | 11.26952 | 18994 ft | 369 kts | 323° |
| 2026-05-05 18:14 | 48.81672 | 11.24772 | 19606 ft | 373 kts | 323° |
| 2026-05-05 18:14 | 48.83807 | 11.22590 | 20202 ft | 376 kts | 322° |
| 2026-05-05 18:14 | 48.85819 | 11.20061 | 20780 ft | 377 kts | 314° |
| 2026-05-05 18:14 | 48.87762 | 11.17345 | 21367 ft | 381 kts | 315° |
| 2026-05-05 18:15 | 48.89723 | 11.14610 | 21943 ft | 384 kts | 315° |
| 2026-05-05 18:15 | 48.91702 | 11.11856 | 22525 ft | 388 kts | 315° |
| 2026-05-05 18:15 | 48.93705 | 11.09068 | 22778 ft | 391 kts | 315° |
| 2026-05-05 18:15 | 48.95709 | 11.06279 | 22820 ft | 391 kts | 315° |
| 2026-05-05 18:16 | 48.97713 | 11.03486 | 22831 ft | 391 kts | 315° |
| 2026-05-05 18:16 | 48.99717 | 11.00686 | 22839 ft | 390 kts | 315° |
| 2026-05-05 18:16 | 49.01686 | 10.97924 | 22838 ft | 390 kts | 315° |
| 2026-05-05 18:16 | 49.03680 | 10.95115 | 22845 ft | 390 kts | 315° |
| 2026-05-05 18:17 | 49.05675 | 10.92301 | 22853 ft | 391 kts | 315° |
| 2026-05-05 18:17 | 49.07667 | 10.89493 | 22853 ft | 390 kts | 315° |
| 2026-05-05 18:17 | 49.09613 | 10.86614 | 22847 ft | 388 kts | 308° |
| 2026-05-05 18:17 | 49.11300 | 10.83406 | 22856 ft | 388 kts | 306° |
| 2026-05-05 18:18 | 49.12979 | 10.80171 | 22857 ft | 388 kts | 306° |
| 2026-05-05 18:18 | 49.14650 | 10.76945 | 22862 ft | 388 kts | 306° |
| 2026-05-05 18:18 | 49.16330 | 10.73695 | 22880 ft | 395 kts | 306° |
| 2026-05-05 18:18 | 49.18057 | 10.70343 | 22879 ft | 406 kts | 306° |
| 2026-05-05 18:19 | 49.19810 | 10.66939 | 22874 ft | 408 kts | 306° |
| 2026-05-05 18:19 | 49.21572 | 10.63521 | 22873 ft | 409 kts | 306° |
| 2026-05-05 18:19 | 49.23336 | 10.60102 | 22884 ft | 410 kts | 306° |
| 2026-05-05 18:19 | 49.25101 | 10.56676 | 22883 ft | 410 kts | 306° |
| 2026-05-05 18:20 | 49.26865 | 10.53240 | 22876 ft | 411 kts | 306° |
| 2026-05-05 18:20 | 49.28602 | 10.49846 | 22875 ft | 411 kts | 306° |
| 2026-05-05 18:20 | 49.30367 | 10.46392 | 22868 ft | 411 kts | 306° |
| 2026-05-05 18:20 | 49.32124 | 10.42952 | 22859 ft | 411 kts | 306° |
| 2026-05-05 18:21 | 49.33888 | 10.39498 | 22860 ft | 411 kts | 306° |
| 2026-05-05 18:21 | 49.35630 | 10.36078 | 22818 ft | 400 kts | 306° |
| 2026-05-05 18:21 | 49.37323 | 10.32755 | 22540 ft | 391 kts | 306° |
| 2026-05-05 18:21 | 49.38986 | 10.29491 | 22268 ft | 387 kts | 306° |
| 2026-05-05 18:22 | 49.40637 | 10.26246 | 22003 ft | 384 kts | 306° |
| 2026-05-05 18:22 | 49.42271 | 10.23021 | 21759 ft | 382 kts | 306° |
| 2026-05-05 18:22 | 49.43874 | 10.19847 | 21483 ft | 380 kts | 306° |
| 2026-05-05 18:22 | 49.45488 | 10.16654 | 21223 ft | 378 kts | 306° |
| 2026-05-05 18:23 | 49.47098 | 10.13478 | 20965 ft | 376 kts | 307° |
| 2026-05-05 18:23 | 49.48895 | 10.10559 | 20701 ft | 376 kts | 314° |
| 2026-05-05 18:23 | 49.50773 | 10.07774 | 20422 ft | 374 kts | 314° |
| 2026-05-05 18:23 | 49.52643 | 10.05017 | 20149 ft | 372 kts | 314° |
| 2026-05-05 18:24 | 49.54504 | 10.02274 | 19876 ft | 370 kts | 314° |
| 2026-05-05 18:24 | 49.56359 | 9.99543 | 19609 ft | 368 kts | 314° |
| 2026-05-05 18:24 | 49.58203 | 9.96827 | 19340 ft | 366 kts | 314° |
| 2026-05-05 18:24 | 49.59861 | 9.93896 | 19077 ft | 361 kts | 302° |
| 2026-05-05 18:25 | 49.61276 | 9.90766 | 18818 ft | 359 kts | 302° |
| 2026-05-05 18:25 | 49.62241 | 9.88636 | 18642 ft | 358 kts | 302° |
| 2026-05-05 18:25 | 49.64123 | 9.84472 | 18097 ft | 356 kts | 302° |
| 2026-05-05 18:25 | 49.65531 | 9.81348 | 17616 ft | 354 kts | 302° |
| 2026-05-05 18:26 | 49.66932 | 9.78233 | 17139 ft | 352 kts | 302° |
| 2026-05-05 18:26 | 49.68317 | 9.75138 | 16672 ft | 350 kts | 302° |
| 2026-05-05 18:26 | 49.69697 | 9.72051 | 16216 ft | 348 kts | 302° |
| 2026-05-05 18:26 | 49.71068 | 9.68989 | 15752 ft | 346 kts | 302° |
| 2026-05-05 18:27 | 49.72431 | 9.65939 | 15304 ft | 344 kts | 302° |
| 2026-05-05 18:27 | 49.73771 | 9.62935 | 14865 ft | 343 kts | 302° |
| 2026-05-05 18:27 | 49.75118 | 9.59908 | 14432 ft | 341 kts | 302° |
| 2026-05-05 18:27 | 49.76681 | 9.57147 | 14000 ft | 342 kts | 313° |
| 2026-05-05 18:28 | 49.80084 | 9.52172 | 13011 ft | 329 kts | 314° |
| 2026-05-05 18:28 | 49.81746 | 9.49765 | 12490 ft | 325 kts | 314° |
| 2026-05-05 18:28 | 49.83388 | 9.47389 | 11974 ft | 322 kts | 314° |
| 2026-05-05 18:29 | 49.85025 | 9.45023 | 11470 ft | 321 kts | 314° |
| 2026-05-05 18:29 | 49.86654 | 9.42666 | 10969 ft | 319 kts | 314° |
| 2026-05-05 18:29 | 49.88275 | 9.40315 | 10482 ft | 320 kts | 314° |
| 2026-05-05 18:29 | 49.89899 | 9.37953 | 9994 ft | 320 kts | 314° |
| 2026-05-05 18:30 | 49.91501 | 9.35616 | 9516 ft | 321 kts | 314° |
| 2026-05-05 18:30 | 49.93124 | 9.33235 | 8980 ft | 321 kts | 314° |
| 2026-05-05 18:30 | 49.94739 | 9.30855 | 8461 ft | 320 kts | 314° |
| 2026-05-05 18:30 | 49.96346 | 9.28469 | 7969 ft | 319 kts | 314° |
| 2026-05-05 18:31 | 49.97919 | 9.26132 | 7816 ft | 306 kts | 314° |
| 2026-05-05 18:31 | 49.99413 | 9.23916 | 7824 ft | 289 kts | 314° |
| 2026-05-05 18:31 | 50.00850 | 9.21792 | 7829 ft | 283 kts | 314° |
| 2026-05-05 18:31 | 50.02276 | 9.19687 | 7830 ft | 282 kts | 314° |
| 2026-05-05 18:32 | 50.03701 | 9.17585 | 7826 ft | 282 kts | 314° |
| 2026-05-05 18:32 | 50.05101 | 9.15517 | 7517 ft | 280 kts | 314° |
| 2026-05-05 18:32 | 50.06449 | 9.13358 | 7116 ft | 276 kts | 303° |
| 2026-05-05 18:32 | 50.07396 | 9.10785 | 6716 ft | 274 kts | 295° |
| 2026-05-05 18:33 | 50.08248 | 9.08141 | 6349 ft | 272 kts | 294° |
| 2026-05-05 18:33 | 50.09080 | 9.05518 | 5965 ft | 270 kts | 294° |
| 2026-05-05 18:33 | 50.09904 | 9.02909 | 5565 ft | 268 kts | 294° |
| 2026-05-05 18:33 | 50.10723 | 9.00313 | 5174 ft | 266 kts | 294° |
| 2026-05-05 18:34 | 50.11534 | 8.97737 | 4772 ft | 263 kts | 292° |
| 2026-05-05 18:34 | 50.12020 | 8.95037 | 4370 ft | 258 kts | 274° |
| 2026-05-05 18:34 | 50.11904 | 8.92275 | 4039 ft | 254 kts | 255° |
| 2026-05-05 18:34 | 50.11333 | 8.89682 | 4008 ft | 249 kts | 249° |
| 2026-05-05 18:35 | 50.10771 | 8.87278 | 4010 ft | 231 kts | 250° |
| 2026-05-05 18:35 | 50.10238 | 8.84996 | 3871 ft | 218 kts | 250° |
| 2026-05-05 18:35 | 50.09729 | 8.82831 | 3609 ft | 208 kts | 250° |
| 2026-05-05 18:35 | 50.09241 | 8.80762 | 3357 ft | 201 kts | 250° |
| 2026-05-05 18:36 | 50.08764 | 8.78738 | 3094 ft | 195 kts | 250° |
| 2026-05-05 18:36 | 50.08330 | 8.76902 | 2838 ft | 190 kts | 250° |
| 2026-05-05 18:36 | 50.07870 | 8.74954 | 2592 ft | 185 kts | 250° |
| 2026-05-05 18:36 | 50.07435 | 8.73114 | 2374 ft | 178 kts | 250° |
| 2026-05-05 18:37 | 50.07016 | 8.71345 | 2136 ft | 172 kts | 250° |
| 2026-05-05 18:37 | 50.06594 | 8.69560 | 1879 ft | 171 kts | 250° |
| 2026-05-05 18:37 | 50.06211 | 8.67945 | 1667 ft | 151 kts | 250° |
| 2026-05-05 18:37 | 50.05870 | 8.66507 | 1460 ft | 137 kts | 250° |
| 2026-05-05 18:38 | 50.05551 | 8.65164 | 1277 ft | 128 kts | 250° |
| 2026-05-05 18:38 | 50.05245 | 8.63879 | 1098 ft | 127 kts | 250° |
| 2026-05-05 18:38 | 50.04931 | 8.62558 | 930 ft | 135 kts | 250° |
| 2026-05-05 18:38 | 50.04609 | 8.61202 | 743 ft | 136 kts | 249° |
| 2026-05-05 18:39 | 50.04295 | 8.59882 | 567 ft | 127 kts | 249° |
| 2026-05-05 18:39 | 50.03990 | 8.58638 | 380 ft | 121 kts | 250° |
| 2026-05-05 18:39 | 50.03768 | 8.57683 | 357 ft | 51 kts | 251° |
| 2026-05-05 18:39 | 50.03720 | 8.57466 | 360 ft | 15 kts | 250° |
| 2026-05-05 18:40 | 50.03660 | 8.57215 | 355 ft | 33 kts | 252° |
| 2026-05-05 18:40 | 50.03588 | 8.56895 | 356 ft | 31 kts | 249° |
| 2026-05-05 18:40 | 50.03496 | 8.56518 | 358 ft | 42 kts | 250° |
| 2026-05-05 18:40 | 50.03428 | 8.56173 | 354 ft | 28 kts | 269° |
| 2026-05-05 18:41 | 50.03457 | 8.55877 | 353 ft | 25 kts | 280° |
| 2026-05-05 18:41 | 50.03462 | 8.55831 | 357 ft | 0 kts | 279° |
| 2026-05-05 18:42 | 50.03464 | 8.55816 | 356 ft | 7 kts | 279° |
| 2026-05-05 18:42 | 50.03479 | 8.55683 | 357 ft | 15 kts | 280° |
| 2026-05-05 18:43 | 50.03493 | 8.55516 | 360 ft | 17 kts | 271° |
| 2026-05-05 18:43 | 50.03459 | 8.55332 | 357 ft | 19 kts | 249° |
| 2026-05-05 18:43 | 50.03410 | 8.55129 | 355 ft | 21 kts | 250° |
| 2026-05-05 18:43 | 50.03358 | 8.54906 | 357 ft | 23 kts | 250° |
| 2026-05-05 18:44 | 50.03299 | 8.54663 | 357 ft | 21 kts | 249° |
| 2026-05-05 18:44 | 50.03297 | 8.54492 | 356 ft | 15 kts | 321° |
| 2026-05-05 18:44 | 50.03320 | 8.54476 | 357 ft | 0 kts | 339° |
| 2026-05-05 18:44 | 50.03323 | 8.54474 | 357 ft | 4 kts | 339° |
| 2026-05-05 18:45 | 50.03418 | 8.54419 | 353 ft | 20 kts | 339° |
| 2026-05-05 18:45 | 50.03556 | 8.54341 | 356 ft | 18 kts | 340° |
| 2026-05-05 18:45 | 50.03638 | 8.54326 | 355 ft | 0 kts | 19° |
| 2026-05-05 18:49 | 50.03670 | 8.54377 | 357 ft | 10 kts | 60° |
| 2026-05-05 18:49 | 50.03696 | 8.54473 | 357 ft | 9 kts | 68° |
| 2026-05-05 18:50 | 50.03717 | 8.54560 | 358 ft | 10 kts | 69° |
| 2026-05-05 18:50 | 50.03757 | 8.54728 | 356 ft | 19 kts | 70° |
| 2026-05-05 18:50 | 50.03807 | 8.54935 | 355 ft | 21 kts | 68° |
| 2026-05-05 18:50 | 50.03861 | 8.55162 | 354 ft | 23 kts | 70° |
| 2026-05-05 18:51 | 50.03920 | 8.55408 | 354 ft | 25 kts | 70° |
| 2026-05-05 18:51 | 50.03983 | 8.55675 | 358 ft | 27 kts | 69° |
| 2026-05-05 18:51 | 50.04051 | 8.55958 | 354 ft | 29 kts | 69° |
| 2026-05-05 18:51 | 50.04090 | 8.56124 | 356 ft | 12 kts | 70° |
| 2026-05-05 18:52 | 50.04115 | 8.56231 | 356 ft | 10 kts | 69° |
| 2026-05-05 18:52 | 50.04139 | 8.56331 | 354 ft | 9 kts | 69° |
| 2026-05-05 18:52 | 50.04160 | 8.56419 | 355 ft | 8 kts | 69° |
| 2026-05-05 18:52 | 50.04185 | 8.56524 | 357 ft | 12 kts | 69° |
| 2026-05-05 18:53 | 50.04213 | 8.56640 | 358 ft | 11 kts | 70° |
| 2026-05-05 18:53 | 50.04216 | 8.56653 | 356 ft | 0 kts | 70° |
| 2026-05-05 18:53 | 50.04230 | 8.56710 | 358 ft | 14 kts | 70° |
| 2026-05-05 18:54 | 50.04259 | 8.56789 | 358 ft | 7 kts | 40° |
| 2026-05-05 18:54 | 50.04302 | 8.56815 | 355 ft | 6 kts | 13° |
| 2026-05-05 18:54 | 50.04341 | 8.56827 | 355 ft | 5 kts | 11° |
| 2026-05-05 18:54 | 50.04355 | 8.56831 | 355 ft | 0 kts | 11° |
| 2026-05-05 18:56 | 50.04389 | 8.56841 | 357 ft | 11 kts | 11° |
| 2026-05-05 18:56 | 50.04471 | 8.56864 | 355 ft | 11 kts | 11° |
| 2026-05-05 18:56 | 50.04543 | 8.56889 | 355 ft | 10 kts | 13° |
| 2026-05-05 18:57 | 50.04606 | 8.56911 | 355 ft | 9 kts | 13° |
| 2026-05-05 18:57 | 50.04660 | 8.56941 | 358 ft | 8 kts | 24° |
| 2026-05-05 18:57 | 50.04705 | 8.56971 | 358 ft | 7 kts | 24° |
| 2026-05-05 18:57 | 50.04755 | 8.57008 | 357 ft | 11 kts | 25° |
| 2026-05-05 18:58 | 50.04820 | 8.57054 | 358 ft | 10 kts | 23° |
| 2026-05-05 18:58 | 50.04879 | 8.57081 | 354 ft | 8 kts | 349° |
| 2026-05-05 18:58 | 50.04897 | 8.57067 | 360 ft | 2 kts | 333° |
| 2026-05-05 18:58 | 50.04910 | 8.57057 | 356 ft | 2 kts | 338° |
| 2026-05-05 18:59 | 50.04920 | 8.57066 | 358 ft | 2 kts | 66° |
| 2026-05-05 18:59 | 50.04918 | 8.57081 | 358 ft | 1 kts | 98° |
| 2026-05-05 18:59 | 50.04917 | 8.57085 | 357 ft | 0 kts | 98° |